createdAt,value
2018-01-04T00:00:54.388Z,8.59
2018-01-04T00:01:54.632Z,8.63
2018-01-04T00:02:54.359Z,8.63
2018-01-04T00:03:54.365Z,8.66
2018-01-04T00:04:54.623Z,8.58
2018-01-04T00:05:54.591Z,8.59
2018-01-04T00:06:54.579Z,8.61
2018-01-04T00:07:54.582Z,8.53
2018-01-04T00:08:54.573Z,8.52
2018-01-04T00:09:54.561Z,8.47
2018-01-04T00:10:54.545Z,8.48
2018-01-04T00:11:54.519Z,8.48
2018-01-04T00:12:54.261Z,8.52
2018-01-04T00:13:54.498Z,8.47
2018-01-04T00:14:54.483Z,8.48
2018-01-04T00:15:54.470Z,8.37
2018-01-04T00:16:54.497Z,8.48
2018-01-04T00:17:54.473Z,8.44
2018-01-04T00:18:54.460Z,8.43
2018-01-04T00:19:54.446Z,8.43
2018-01-04T00:20:54.441Z,8.5
2018-01-04T00:21:54.418Z,8.5
2018-01-04T00:22:54.410Z,8.47
2018-01-04T00:23:54.393Z,8.41
2018-01-04T00:24:54.402Z,8.44
2018-01-04T00:25:54.364Z,8.48
2018-01-04T00:26:54.355Z,8.41
2018-01-04T00:27:54.340Z,8.44
2018-01-04T00:28:54.330Z,8.45
2018-01-04T00:29:54.325Z,8.48
2018-01-04T00:30:54.305Z,8.48
2018-01-04T00:31:54.045Z,8.5
2018-01-04T00:32:54.282Z,8.44
2018-01-04T00:33:54.282Z,8.52
2018-01-04T00:34:54.265Z,8.47
2018-01-04T00:35:54.252Z,8.45
2018-01-04T00:36:54.235Z,8.53
2018-01-04T00:37:53.980Z,8.43
2018-01-04T00:38:54.218Z,8.52
2018-01-04T00:39:54.202Z,8.47
2018-01-04T00:40:54.204Z,8.5
2018-01-04T00:41:54.205Z,8.52
2018-01-04T00:42:53.917Z,8.59
2018-01-04T00:43:54.164Z,8.59
2018-01-04T00:44:54.174Z,8.63
2018-01-04T00:45:54.149Z,8.56
2018-01-04T00:46:54.133Z,8.68
2018-01-04T00:47:53.871Z,8.59
2018-01-04T00:48:54.106Z,8.58
2018-01-04T00:49:54.110Z,8.68
2018-01-04T00:50:54.086Z,8.52
2018-01-04T00:51:53.823Z,8.61
2018-01-04T00:52:53.816Z,8.58
2018-01-04T00:53:54.066Z,8.56
2018-01-04T00:54:54.045Z,8.58
2018-01-04T00:55:54.035Z,8.63
2018-01-04T00:56:54.015Z,8.62
2018-01-04T00:57:53.755Z,8.59
2018-01-04T00:58:54.001Z,8.61
2018-01-04T00:59:53.995Z,8.66
2018-01-04T01:00:53.975Z,8.58
2018-01-04T01:01:53.962Z,8.63
2018-01-04T01:02:53.948Z,8.63
2018-01-04T01:03:53.941Z,8.59
2018-01-04T01:04:53.944Z,8.5
2018-01-04T01:05:53.929Z,8.5
2018-01-04T01:06:53.918Z,8.47
2018-01-04T01:07:53.908Z,8.52
2018-01-04T01:08:53.888Z,8.44
2018-01-04T01:09:53.934Z,8.4
2018-01-04T01:10:53.864Z,8.48
2018-01-04T01:11:53.860Z,8.45
2018-01-04T01:12:53.847Z,8.45
2018-01-04T01:13:53.846Z,8.41
2018-01-04T01:14:53.317Z,8.41
2018-01-04T01:15:53.816Z,8.48
2018-01-04T01:16:53.799Z,8.44
2018-01-04T01:17:53.795Z,8.44
2018-01-04T01:18:53.797Z,8.37
2018-01-04T01:19:53.776Z,8.5
2018-01-04T01:20:53.758Z,8.5
2018-01-04T01:21:53.751Z,8.47
2018-01-04T01:22:53.740Z,8.47
2018-01-04T01:23:53.732Z,8.43
2018-01-04T01:24:53.719Z,8.47
2018-01-04T01:25:53.717Z,8.44
2018-01-04T01:26:53.682Z,8.48
2018-01-04T01:27:53.682Z,8.48
2018-01-04T01:28:53.668Z,8.5
2018-01-04T01:29:53.652Z,8.4
2018-01-04T01:30:53.641Z,8.45
2018-01-04T01:31:53.636Z,8.53
2018-01-04T01:32:53.619Z,8.5
2018-01-04T01:33:53.619Z,8.48
2018-01-04T01:34:53.606Z,8.55
2018-01-04T01:35:53.591Z,8.56
2018-01-04T01:36:53.591Z,8.56
2018-01-04T01:37:53.571Z,8.61
2018-01-04T01:38:53.558Z,8.65
2018-01-04T01:39:53.558Z,8.65
2018-01-04T01:40:53.531Z,8.59
2018-01-04T01:41:53.268Z,8.58
2018-01-04T01:42:53.508Z,8.61
2018-01-04T01:43:53.497Z,8.63
2018-01-04T01:44:53.502Z,8.59
2018-01-04T01:45:53.483Z,8.65
2018-01-04T01:46:53.489Z,8.65
2018-01-04T01:47:53.457Z,8.73
2018-01-04T01:48:53.442Z,8.7
2018-01-04T01:49:53.444Z,8.73
2018-01-04T01:50:53.417Z,8.74
2018-01-04T01:51:53.410Z,8.68
2018-01-04T01:52:53.394Z,8.58
2018-01-04T01:53:53.394Z,8.62
2018-01-04T01:54:53.378Z,8.59
2018-01-04T01:55:53.388Z,8.59
2018-01-04T01:56:53.358Z,8.53
2018-01-04T01:57:53.346Z,8.47
2018-01-04T01:58:53.338Z,8.47
2018-01-04T01:59:53.320Z,8.47
2018-01-04T02:00:53.320Z,8.45
2018-01-04T02:01:53.305Z,8.52
2018-01-04T02:02:53.048Z,8.41
2018-01-04T02:03:53.276Z,8.43
2018-01-04T02:04:53.275Z,8.47
2018-01-04T02:05:53.280Z,8.47
2018-01-04T02:06:53.006Z,8.52
2018-01-04T02:07:53.232Z,8.45
2018-01-04T02:08:53.240Z,8.48
2018-01-04T02:09:53.224Z,8.36
2018-01-04T02:10:53.214Z,8.44
2018-01-04T02:11:53.189Z,8.45
2018-01-04T02:12:52.923Z,8.47
2018-01-04T02:13:53.181Z,8.45
2018-01-04T02:14:52.904Z,8.44
2018-01-04T02:15:53.164Z,8.44
2018-01-04T02:16:53.165Z,8.48
2018-01-04T02:17:53.128Z,8.44
2018-01-04T02:18:53.117Z,8.36
2018-01-04T02:19:53.105Z,8.41
2018-01-04T02:20:53.100Z,8.48
2018-01-04T02:21:53.085Z,8.52
2018-01-04T02:22:53.085Z,8.44
2018-01-04T02:23:53.060Z,8.45
2018-01-04T02:24:53.064Z,8.5
2018-01-04T02:25:53.047Z,8.43
2018-01-04T02:26:53.029Z,8.45
2018-01-04T02:27:53.014Z,8.4
2018-01-04T02:28:53.005Z,8.37
2018-01-04T02:29:52.998Z,8.48
2018-01-04T02:30:52.991Z,8.5
2018-01-04T02:31:52.970Z,8.52
2018-01-04T02:32:52.957Z,8.5
2018-01-04T02:33:52.957Z,8.55
2018-01-04T02:34:52.933Z,8.48
2018-01-04T02:35:52.927Z,8.58
2018-01-04T02:36:52.925Z,8.63
2018-01-04T02:37:52.912Z,8.63
2018-01-04T02:38:52.897Z,8.63
2018-01-04T02:39:52.888Z,8.61
2018-01-04T02:40:52.610Z,8.66
2018-01-04T02:41:52.858Z,8.63
2018-01-04T02:42:52.858Z,8.61
2018-01-04T02:43:52.856Z,8.58
2018-01-04T02:44:52.846Z,8.63
2018-01-04T02:45:52.809Z,8.62
2018-01-04T02:46:52.550Z,8.56
2018-01-04T02:47:52.534Z,8.61
2018-01-04T02:48:52.784Z,8.59
2018-01-04T02:49:52.771Z,8.55
2018-01-04T02:50:52.518Z,8.55
2018-01-04T02:51:52.777Z,8.63
2018-01-04T02:52:52.753Z,8.55
2018-01-04T02:53:52.738Z,8.53
2018-01-04T02:54:52.505Z,8.53
2018-01-04T02:55:52.703Z,8.47
2018-01-04T02:56:52.444Z,8.47
2018-01-04T02:57:52.679Z,8.5
2018-01-04T02:58:52.702Z,8.34
2018-01-04T02:59:52.658Z,8.36
2018-01-04T03:00:52.954Z,8.36
2018-01-04T03:01:52.652Z,8.33
2018-01-04T03:02:52.677Z,8.29
2018-01-04T03:03:52.614Z,8.26
2018-01-04T03:04:52.611Z,8.23
2018-01-04T03:05:52.612Z,8.15
2018-01-04T03:06:52.580Z,8.25
2018-01-04T03:07:52.570Z,8.25
2018-01-04T03:08:52.569Z,8.12
2018-01-04T03:09:52.553Z,8.18
2018-01-04T03:10:52.278Z,8.16
2018-01-04T03:11:52.548Z,8.19
2018-01-04T03:12:52.524Z,8.12
2018-01-04T03:13:52.521Z,8.1
2018-01-04T03:14:52.493Z,8.18
2018-01-04T03:15:52.489Z,8.12
2018-01-04T03:16:52.489Z,8.15
2018-01-04T03:17:52.457Z,8.12
2018-01-04T03:18:52.461Z,7.98
2018-01-04T03:19:52.439Z,8.01
2018-01-04T03:20:52.427Z,8.02
2018-01-04T03:21:52.411Z,8.08
2018-01-04T03:22:52.403Z,8
2018-01-04T03:23:52.411Z,8.02
2018-01-04T03:24:52.395Z,8.18
2018-01-04T03:25:52.365Z,8.15
2018-01-04T03:26:52.362Z,8.16
2018-01-04T03:27:52.357Z,8.12
2018-01-04T03:28:52.346Z,8.16
2018-01-04T03:29:52.333Z,8.15
2018-01-04T03:30:52.334Z,8.11
2018-01-04T03:31:52.314Z,8.04
2018-01-04T03:32:52.296Z,8.11
2018-01-04T03:33:52.309Z,8.16
2018-01-04T03:34:52.281Z,8.15
2018-01-04T03:35:52.312Z,8.04
2018-01-04T03:36:52.251Z,8.2
2018-01-04T03:37:51.984Z,8.15
2018-01-04T03:38:52.243Z,8.18
2018-01-04T03:39:52.223Z,8.12
2018-01-04T03:40:52.209Z,8.12
2018-01-04T03:41:52.186Z,8.12
2018-01-04T03:42:52.184Z,8.16
2018-01-04T03:43:52.168Z,8.22
2018-01-04T03:44:51.912Z,8.25
2018-01-04T03:45:52.167Z,8.2
2018-01-04T03:46:52.142Z,8.28
2018-01-04T03:47:52.132Z,8.28
2018-01-04T03:48:52.117Z,8.19
2018-01-04T03:49:51.585Z,8.23
2018-01-04T03:50:51.839Z,8.33
2018-01-04T03:51:51.564Z,8.29
2018-01-04T03:52:52.075Z,8.23
2018-01-04T03:53:52.050Z,8.22
2018-01-04T03:54:52.051Z,8.22
2018-01-04T03:55:51.775Z,8.26
2018-01-04T03:56:52.018Z,8.18
2018-01-04T03:57:52.020Z,8.11
2018-01-04T03:58:52.005Z,8.1
2018-01-04T03:59:51.998Z,8.15
2018-01-04T04:00:51.725Z,8.26
2018-01-04T04:01:51.972Z,8.23
2018-01-04T04:02:51.966Z,8.26
2018-01-04T04:03:51.960Z,8.22
2018-01-04T04:04:51.936Z,8.28
2018-01-04T04:05:51.932Z,8.25
2018-01-04T04:06:51.910Z,8.19
2018-01-04T04:07:51.895Z,8.1
2018-01-04T04:08:51.880Z,8.12
2018-01-04T04:09:51.631Z,8.19
2018-01-04T04:10:51.859Z,8.11
2018-01-04T04:11:51.590Z,8.19
2018-01-04T04:12:51.851Z,8.15
2018-01-04T04:13:51.838Z,8.15
2018-01-04T04:14:51.822Z,8.23
2018-01-04T04:15:51.553Z,8.25
2018-01-04T04:16:51.790Z,8.3
2018-01-04T04:17:51.789Z,8.3
2018-01-04T04:18:51.262Z,8.34
2018-01-04T04:19:51.764Z,8.33
2018-01-04T04:20:51.754Z,8.25
2018-01-04T04:21:51.741Z,8.36
2018-01-04T04:22:51.470Z,8.36
2018-01-04T04:23:51.713Z,8.29
2018-01-04T04:24:51.721Z,8.36
2018-01-04T04:25:51.692Z,8.3
2018-01-04T04:26:51.428Z,8.38
2018-01-04T04:27:51.674Z,8.33
2018-01-04T04:28:51.404Z,8.34
2018-01-04T04:29:51.440Z,8.4
2018-01-04T04:30:51.646Z,8.41
2018-01-04T04:31:51.631Z,8.38
2018-01-04T04:32:51.615Z,8.28
2018-01-04T04:33:51.600Z,8.38
2018-01-04T04:34:51.599Z,8.36
2018-01-04T04:35:51.596Z,8.38
2018-01-04T04:36:51.579Z,8.33
2018-01-04T04:37:51.573Z,8.28
2018-01-04T04:38:51.546Z,8.37
2018-01-04T04:39:51.545Z,8.36
2018-01-04T04:40:51.534Z,8.3
2018-01-04T04:41:51.519Z,8.4
2018-01-04T04:42:51.522Z,8.33
2018-01-04T04:43:51.502Z,8.34
2018-01-04T04:44:51.495Z,8.28
2018-01-04T04:45:51.479Z,8.19
2018-01-04T04:46:51.470Z,8.22
2018-01-04T04:47:51.461Z,8.22
2018-01-04T04:48:51.450Z,8.18
2018-01-04T04:49:51.430Z,8.12
2018-01-04T04:50:51.415Z,8.15
2018-01-04T04:51:51.456Z,8.04
2018-01-04T04:52:51.386Z,8.07
2018-01-04T04:53:51.383Z,8
2018-01-04T04:54:51.366Z,8.02
2018-01-04T04:55:51.354Z,8.01
2018-01-04T04:56:51.350Z,8.05
2018-01-04T04:57:51.352Z,8.07
2018-01-04T04:58:51.331Z,8
2018-01-04T04:59:51.321Z,8.05
2018-01-04T05:00:51.056Z,8.01
2018-01-04T05:01:51.297Z,8.04
2018-01-04T05:02:51.028Z,8.07
2018-01-04T05:03:51.010Z,8.11
2018-01-04T05:04:51.011Z,8.04
2018-01-04T05:05:51.242Z,8.02
2018-01-04T05:06:51.230Z,8.08
2018-01-04T05:07:51.235Z,8.12
2018-01-04T05:08:50.960Z,8.08
2018-01-04T05:09:51.209Z,8.12
2018-01-04T05:10:51.218Z,8.19
2018-01-04T05:11:50.929Z,8.25
2018-01-04T05:12:51.179Z,8.19
2018-01-04T05:13:51.158Z,8.25
2018-01-04T05:14:51.146Z,8.33
2018-01-04T05:15:51.128Z,8.29
2018-01-04T05:16:50.875Z,8.34
2018-01-04T05:17:51.115Z,8.3
2018-01-04T05:18:51.106Z,8.33
2018-01-04T05:19:51.103Z,8.38
2018-01-04T05:20:51.072Z,8.34
2018-01-04T05:21:51.075Z,8.36
2018-01-04T05:22:51.055Z,8.36
2018-01-04T05:23:51.059Z,8.38
2018-01-04T05:24:51.030Z,8.4
2018-01-04T05:25:51.027Z,8.44
2018-01-04T05:26:51.007Z,8.48
2018-01-04T05:27:51.006Z,8.44
2018-01-04T05:28:50.985Z,8.43
2018-01-04T05:29:50.994Z,8.43
2018-01-04T05:30:50.706Z,8.48
2018-01-04T05:31:51.030Z,8.4
2018-01-04T05:32:50.941Z,8.4
2018-01-04T05:33:50.941Z,8.53
2018-01-04T05:34:50.921Z,8.52
2018-01-04T05:35:50.908Z,8.48
2018-01-04T05:36:50.908Z,8.5
2018-01-04T05:37:50.880Z,8.48
2018-01-04T05:38:50.880Z,8.45
2018-01-04T05:39:50.869Z,8.48
2018-01-04T05:40:50.926Z,8.38
2018-01-04T05:41:50.853Z,8.43
2018-01-04T05:42:50.829Z,8.47
2018-01-04T05:43:50.836Z,8.55
2018-01-04T05:44:50.814Z,8.47
2018-01-04T05:45:50.803Z,8.53
2018-01-04T05:46:50.794Z,8.52
2018-01-04T05:47:50.774Z,8.52
2018-01-04T05:48:50.771Z,8.48
2018-01-04T05:49:50.758Z,8.61
2018-01-04T05:50:50.742Z,8.55
2018-01-04T05:51:50.741Z,8.53
2018-01-04T05:52:50.739Z,8.52
2018-01-04T05:53:50.724Z,8.5
2018-01-04T05:54:50.458Z,8.5
2018-01-04T05:55:50.697Z,8.53
2018-01-04T05:56:50.685Z,8.55
2018-01-04T05:57:50.666Z,8.48
2018-01-04T05:58:50.407Z,8.53
2018-01-04T05:59:50.657Z,8.52
2018-01-04T06:00:50.702Z,8.48
2018-01-04T06:01:50.626Z,8.52
2018-01-04T06:02:50.622Z,8.47
2018-01-04T06:03:50.615Z,8.44
2018-01-04T06:04:50.611Z,8.5
2018-01-04T06:05:50.575Z,8.55
2018-01-04T06:06:50.311Z,8.48
2018-01-04T06:07:50.554Z,8.5
2018-01-04T06:08:50.550Z,8.53
2018-01-04T06:09:50.543Z,8.52
2018-01-04T06:10:50.530Z,8.53
2018-01-04T06:11:50.518Z,8.47
2018-01-04T06:12:50.531Z,8.5
2018-01-04T06:13:50.494Z,8.52
2018-01-04T06:14:50.509Z,8.48
2018-01-04T06:15:50.480Z,8.5
2018-01-04T06:16:50.497Z,8.52
2018-01-04T06:17:50.454Z,8.5
2018-01-04T06:18:50.449Z,8.43
2018-01-04T06:19:50.450Z,8.5
2018-01-04T06:20:50.445Z,8.48
2018-01-04T06:21:50.397Z,8.5
2018-01-04T06:22:50.402Z,8.5
2018-01-04T06:23:50.391Z,8.52
2018-01-04T06:24:50.109Z,8.47
2018-01-04T06:25:50.113Z,8.52
2018-01-04T06:26:50.397Z,8.5
2018-01-04T06:27:50.338Z,8.53
2018-01-04T06:28:50.324Z,8.59
2018-01-04T06:29:50.314Z,8.61
2018-01-04T06:30:50.318Z,8.61
2018-01-04T06:31:50.312Z,8.66
2018-01-04T06:32:50.285Z,8.62
2018-01-04T06:33:50.281Z,8.58
2018-01-04T06:34:50.266Z,8.61
2018-01-04T06:35:50.242Z,8.61
2018-01-04T06:36:50.247Z,8.61
2018-01-04T06:37:50.232Z,8.63
2018-01-04T06:38:50.222Z,8.61
2018-01-04T06:39:50.212Z,8.59
2018-01-04T06:40:50.192Z,8.59
2018-01-04T06:41:50.181Z,8.71
2018-01-04T06:42:50.189Z,8.61
2018-01-04T06:43:50.162Z,8.58
2018-01-04T06:44:50.163Z,8.62
2018-01-04T06:45:50.154Z,8.62
2018-01-04T06:46:49.865Z,8.55
2018-01-04T06:47:50.131Z,8.63
2018-01-04T06:48:50.109Z,8.62
2018-01-04T06:49:50.106Z,8.58
2018-01-04T06:50:50.088Z,8.52
2018-01-04T06:51:50.078Z,8.48
2018-01-04T06:52:50.058Z,8.52
2018-01-04T06:53:50.080Z,8.53
2018-01-04T06:54:50.042Z,8.48
2018-01-04T06:55:50.023Z,8.48
2018-01-04T06:56:50.016Z,8.48
2018-01-04T06:57:50.020Z,8.48
2018-01-04T06:58:49.998Z,8.5
2018-01-04T06:59:50.003Z,8.34
2018-01-04T07:00:50.000Z,8.43
2018-01-04T07:01:49.970Z,8.48
2018-01-04T07:02:49.946Z,8.37
2018-01-04T07:03:49.991Z,8.33
2018-01-04T07:04:49.932Z,8.29
2018-01-04T07:05:49.657Z,8.33
2018-01-04T07:06:49.912Z,8.28
2018-01-04T07:07:49.912Z,8.2
2018-01-04T07:08:49.885Z,8.2
2018-01-04T07:09:49.876Z,8.23
2018-01-04T07:10:49.603Z,8.28
2018-01-04T07:11:49.860Z,8.25
2018-01-04T07:12:49.862Z,8.18
2018-01-04T07:13:49.830Z,8.19
2018-01-04T07:14:49.828Z,8.16
2018-01-04T07:15:49.826Z,8.18
2018-01-04T07:16:49.800Z,8.2
2018-01-04T07:17:49.785Z,8.16
2018-01-04T07:18:49.775Z,8.12
2018-01-04T07:19:49.828Z,8.15
2018-01-04T07:20:49.764Z,8.16
2018-01-04T07:21:49.738Z,8.15
2018-01-04T07:22:49.754Z,8.1
2018-01-04T07:23:49.781Z,8.12
2018-01-04T07:24:49.718Z,8.1
2018-01-04T07:25:49.695Z,8.11
2018-01-04T07:26:49.681Z,8.12
2018-01-04T07:27:49.425Z,8.16
2018-01-04T07:28:49.412Z,8.12
2018-01-04T07:29:49.658Z,8.15
2018-01-04T07:30:49.657Z,8.05
2018-01-04T07:31:49.664Z,8.04
2018-01-04T07:32:49.615Z,8.16
2018-01-04T07:33:49.610Z,8.19
2018-01-04T07:34:49.590Z,8.1
2018-01-04T07:35:49.335Z,8.04
2018-01-04T07:36:49.574Z,8.02
2018-01-04T07:37:49.580Z,7.98
2018-01-04T07:38:49.553Z,8.05
2018-01-04T07:39:49.534Z,8.05
2018-01-04T07:40:49.535Z,8.02
2018-01-04T07:41:49.318Z,8.02
2018-01-04T07:42:49.502Z,8.02
2018-01-04T07:43:49.501Z,8.02
2018-01-04T07:44:49.476Z,8.04
2018-01-04T07:45:49.485Z,8.02
2018-01-04T07:46:49.212Z,7.98
2018-01-04T07:47:49.469Z,8.07
2018-01-04T07:48:49.462Z,8.02
2018-01-04T07:49:49.456Z,8.07
2018-01-04T07:50:49.427Z,8.02
2018-01-04T07:51:49.453Z,8.02
2018-01-04T07:52:49.458Z,8.02
2018-01-04T07:53:49.402Z,8
2018-01-04T07:54:49.392Z,8.02
2018-01-04T07:55:49.381Z,8.11
2018-01-04T07:56:49.362Z,8.1
2018-01-04T07:57:49.093Z,8.15
2018-01-04T07:58:49.070Z,8.11
2018-01-04T07:59:49.345Z,8.16
2018-01-04T08:00:49.310Z,8.16
2018-01-04T08:01:49.045Z,8.18
2018-01-04T08:02:49.279Z,8.16
2018-01-04T08:03:49.006Z,8.2
2018-01-04T08:04:49.252Z,8.2
2018-01-04T08:05:48.993Z,8.22
2018-01-04T08:06:48.989Z,8.33
2018-01-04T08:07:49.233Z,8.22
2018-01-04T08:08:49.219Z,8.28
2018-01-04T08:09:49.000Z,8.28
2018-01-04T08:10:49.314Z,8.26
2018-01-04T08:11:49.177Z,8.28
2018-01-04T08:12:49.177Z,8.33
2018-01-04T08:13:49.172Z,8.4
2018-01-04T08:14:49.184Z,8.25
2018-01-04T08:15:49.180Z,8.38
2018-01-04T08:16:48.876Z,8.38
2018-01-04T08:17:49.112Z,8.36
2018-01-04T08:18:48.843Z,8.37
2018-01-04T08:19:49.110Z,8.48
2018-01-04T08:20:49.086Z,8.4
2018-01-04T08:21:48.812Z,8.43
2018-01-04T08:22:49.059Z,8.4
2018-01-04T08:23:49.042Z,8.41
2018-01-04T08:24:49.102Z,8.4
2018-01-04T08:25:48.786Z,8.55
2018-01-04T08:26:48.769Z,8.56
2018-01-04T08:27:49.004Z,8.63
2018-01-04T08:28:48.734Z,8.71
2018-01-04T08:29:48.727Z,8.65
2018-01-04T08:30:48.765Z,8.76
2018-01-04T08:31:48.823Z,8.66
2018-01-04T08:32:48.999Z,8.73
2018-01-04T08:33:48.930Z,8.79
2018-01-04T08:34:48.931Z,8.71
2018-01-04T08:35:48.908Z,8.8
2018-01-04T08:36:48.963Z,8.73
2018-01-04T08:37:48.696Z,8.74
2018-01-04T08:38:48.902Z,8.66
2018-01-04T08:39:48.887Z,8.66
2018-01-04T08:40:48.860Z,8.7
2018-01-04T08:41:48.867Z,8.68
2018-01-04T08:42:48.885Z,8.68
2018-01-04T08:43:48.835Z,8.66
2018-01-04T08:44:48.818Z,8.73
2018-01-04T08:45:48.847Z,8.7
2018-01-04T08:46:48.826Z,8.71
2018-01-04T08:47:48.540Z,8.71
2018-01-04T08:48:48.776Z,8.81
2018-01-04T08:49:48.891Z,8.81
2018-01-04T08:50:48.895Z,8.8
2018-01-04T08:51:48.797Z,8.8
2018-01-04T08:52:48.530Z,8.84
2018-01-04T08:53:48.746Z,8.8
2018-01-04T08:54:48.717Z,8.89
2018-01-04T08:55:48.691Z,8.98
2018-01-04T08:56:48.733Z,9.01
2018-01-04T08:57:48.684Z,8.98
2018-01-04T08:58:48.431Z,9.04
2018-01-04T08:59:48.736Z,9.02
2018-01-04T09:00:48.406Z,9.1
2018-01-04T09:01:48.752Z,9.08
2018-01-04T09:02:48.638Z,9.14
2018-01-04T09:03:48.426Z,9.17
2018-01-04T09:04:48.635Z,9.11
2018-01-04T09:05:48.677Z,9.17
2018-01-04T09:06:48.654Z,9.1
2018-01-04T09:07:48.368Z,9.17
2018-01-04T09:08:48.577Z,9.21
2018-01-04T09:09:48.545Z,9.21
2018-01-04T09:10:48.550Z,9.17
2018-01-04T09:11:48.564Z,9.13
2018-01-04T09:12:48.555Z,9.2
2018-01-04T09:13:48.552Z,9.18
2018-01-04T09:14:48.513Z,9.17
2018-01-04T09:15:48.757Z,9.13
2018-01-04T09:16:48.572Z,9.17
2018-01-04T09:17:48.485Z,9.05
2018-01-04T09:18:48.452Z,9.01
2018-01-04T09:19:48.450Z,9.05
2018-01-04T09:20:48.451Z,9.02
2018-01-04T09:21:48.421Z,8.99
2018-01-04T09:22:48.416Z,9.01
2018-01-04T09:23:48.423Z,8.92
2018-01-04T09:24:48.434Z,8.86
2018-01-04T09:25:48.389Z,8.91
2018-01-04T09:26:48.394Z,8.96
2018-01-04T09:27:48.425Z,8.99
2018-01-04T09:28:48.358Z,8.95
2018-01-04T09:29:48.341Z,8.98
2018-01-04T09:30:48.703Z,8.98
2018-01-04T09:31:48.433Z,9.08
2018-01-04T09:32:48.320Z,9.01
2018-01-04T09:33:48.304Z,9.21
2018-01-04T09:34:48.314Z,9.18
2018-01-04T09:35:48.320Z,9.21
2018-01-04T09:36:48.279Z,9.15
2018-01-04T09:37:48.271Z,9.18
2018-01-04T09:38:48.245Z,9.33
2018-01-04T09:39:48.032Z,9.38
2018-01-04T09:40:48.355Z,9.4
2018-01-04T09:41:48.235Z,9.38
2018-01-04T09:42:48.221Z,9.47
2018-01-04T09:43:48.189Z,9.47
2018-01-04T09:44:48.197Z,9.48
2018-01-04T09:45:48.174Z,9.4
2018-01-04T09:46:48.174Z,9.4
2018-01-04T09:47:48.196Z,9.42
2018-01-04T09:48:48.204Z,9.4
2018-01-04T09:49:48.205Z,9.46
2018-01-04T09:50:48.195Z,9.4
2018-01-04T09:51:47.947Z,9.47
2018-01-04T09:52:47.859Z,9.56
2018-01-04T09:53:47.878Z,9.61
2018-01-04T09:54:48.124Z,9.66
2018-01-04T09:55:47.829Z,9.72
2018-01-04T09:56:48.091Z,9.74
2018-01-04T09:57:48.082Z,9.89
2018-01-04T09:58:48.042Z,9.84
2018-01-04T09:59:47.849Z,9.83
2018-01-04T10:00:48.043Z,9.94
2018-01-04T10:01:47.769Z,10.02
2018-01-04T10:02:47.741Z,10.01
2018-01-04T10:03:48.061Z,9.99
2018-01-04T10:04:47.792Z,10.01
2018-01-04T10:05:48.006Z,9.97
2018-01-04T10:06:47.966Z,9.93
2018-01-04T10:07:47.711Z,9.94
2018-01-04T10:08:47.959Z,9.9
2018-01-04T10:09:47.964Z,9.99
2018-01-04T10:10:47.930Z,9.91
2018-01-04T10:11:47.922Z,10.02
2018-01-04T10:12:47.655Z,9.97
2018-01-04T10:13:47.895Z,9.86
2018-01-04T10:14:47.895Z,9.87
2018-01-04T10:15:47.904Z,9.86
2018-01-04T10:16:47.868Z,9.86
2018-01-04T10:17:47.593Z,9.86
2018-01-04T10:18:47.845Z,9.83
2018-01-04T10:19:47.892Z,9.84
2018-01-04T10:20:47.825Z,9.83
2018-01-04T10:21:47.823Z,9.89
2018-01-04T10:22:47.819Z,9.86
2018-01-04T10:23:47.800Z,9.87
2018-01-04T10:24:47.803Z,9.87
2018-01-04T10:25:47.812Z,9.84
2018-01-04T10:26:47.834Z,9.83
2018-01-04T10:27:47.997Z,9.9
2018-01-04T10:28:47.768Z,9.94
2018-01-04T10:29:47.747Z,9.99
2018-01-04T10:30:47.479Z,9.91
2018-01-04T10:31:47.737Z,9.93
2018-01-04T10:32:47.715Z,9.97
2018-01-04T10:33:47.441Z,9.99
2018-01-04T10:34:47.706Z,10.11
2018-01-04T10:35:47.697Z,10.02
2018-01-04T10:36:47.721Z,10.08
2018-01-04T10:37:47.680Z,10.2
2018-01-04T10:38:47.705Z,10.2
2018-01-04T10:39:47.642Z,10.15
2018-01-04T10:40:47.664Z,10.27
2018-01-04T10:41:47.637Z,10.3
2018-01-04T10:42:47.615Z,10.29
2018-01-04T10:43:47.623Z,10.33
2018-01-04T10:44:47.675Z,10.44
2018-01-04T10:45:47.590Z,10.41
2018-01-04T10:46:47.376Z,10.53
2018-01-04T10:47:47.342Z,10.51
2018-01-04T10:48:47.552Z,10.63
2018-01-04T10:49:47.553Z,10.68
2018-01-04T10:50:47.545Z,10.64
2018-01-04T10:51:47.541Z,10.67
2018-01-04T10:52:47.582Z,10.73
2018-01-04T10:53:47.518Z,10.64
2018-01-04T10:54:47.498Z,10.67
2018-01-04T10:55:47.502Z,10.7
2018-01-04T10:56:47.521Z,10.76
2018-01-04T10:57:47.534Z,10.74
2018-01-04T10:58:47.215Z,10.76
2018-01-04T10:59:47.458Z,10.81
2018-01-04T11:00:47.446Z,10.76
2018-01-04T11:01:47.506Z,10.7
2018-01-04T11:02:47.432Z,10.79
2018-01-04T11:03:47.446Z,10.71
2018-01-04T11:04:47.436Z,10.79
2018-01-04T11:05:47.421Z,10.79
2018-01-04T11:06:47.545Z,10.74
2018-01-04T11:07:47.434Z,10.76
2018-01-04T11:08:47.375Z,10.74
2018-01-04T11:09:47.527Z,10.68
2018-01-04T11:10:47.121Z,10.68
2018-01-04T11:11:47.136Z,10.7
2018-01-04T11:12:47.343Z,10.66
2018-01-04T11:13:47.340Z,10.64
2018-01-04T11:14:47.294Z,10.73
2018-01-04T11:15:47.157Z,10.76
2018-01-04T11:16:47.360Z,10.7
2018-01-04T11:17:47.305Z,10.68
2018-01-04T11:18:47.298Z,10.73
2018-01-04T11:19:47.284Z,10.79
2018-01-04T11:20:47.269Z,10.73
2018-01-04T11:21:47.276Z,10.78
2018-01-04T11:22:47.247Z,10.89
2018-01-04T11:23:47.255Z,10.91
2018-01-04T11:24:47.235Z,10.88
2018-01-04T11:25:47.220Z,10.91
2018-01-04T11:26:47.219Z,10.96
2018-01-04T11:27:47.198Z,10.99
2018-01-04T11:28:47.187Z,10.96
2018-01-04T11:29:47.212Z,10.92
2018-01-04T11:30:47.229Z,10.99
2018-01-04T11:31:47.183Z,10.97
2018-01-04T11:32:46.902Z,10.92
2018-01-04T11:33:47.148Z,10.88
2018-01-04T11:34:47.196Z,10.96
2018-01-04T11:35:47.148Z,10.99
2018-01-04T11:36:47.151Z,11.07
2018-01-04T11:37:47.113Z,10.99
2018-01-04T11:38:47.115Z,11.06
2018-01-04T11:39:47.116Z,11.07
2018-01-04T11:40:47.106Z,11.1
2018-01-04T11:41:47.107Z,11.1
2018-01-04T11:42:46.815Z,11.07
2018-01-04T11:43:47.066Z,11.07
2018-01-04T11:44:47.130Z,11.06
2018-01-04T11:45:47.063Z,11.09
2018-01-04T11:46:47.041Z,11.17
2018-01-04T11:47:47.033Z,11.1
2018-01-04T11:48:47.034Z,11.03
2018-01-04T11:49:47.010Z,11.09
2018-01-04T11:50:47.057Z,11.1
2018-01-04T11:51:47.006Z,11.04
2018-01-04T11:52:47.002Z,11.04
2018-01-04T11:53:46.979Z,10.96
2018-01-04T11:54:47.006Z,10.92
2018-01-04T11:55:46.472Z,10.94
2018-01-04T11:56:46.743Z,11.04
2018-01-04T11:57:47.037Z,10.96
2018-01-04T11:58:46.940Z,10.85
2018-01-04T11:59:46.964Z,10.86
2018-01-04T12:00:46.650Z,10.81
2018-01-04T12:01:46.922Z,10.78
2018-01-04T12:02:46.887Z,10.79
2018-01-04T12:03:46.955Z,10.79
2018-01-04T12:04:46.879Z,10.78
2018-01-04T12:05:46.875Z,10.76
2018-01-04T12:06:46.855Z,10.79
2018-01-04T12:07:46.931Z,10.82
2018-01-04T12:08:46.852Z,10.7
2018-01-04T12:09:46.868Z,10.73
2018-01-04T12:10:46.824Z,10.71
2018-01-04T12:11:46.816Z,10.66
2018-01-04T12:12:46.844Z,10.64
2018-01-04T12:13:46.859Z,10.63
2018-01-04T12:14:47.146Z,10.6
2018-01-04T12:15:46.815Z,10.52
2018-01-04T12:16:46.305Z,10.56
2018-01-04T12:17:47.542Z,10.59
2018-01-04T12:18:46.773Z,10.55
2018-01-04T12:19:46.754Z,10.47
2018-01-04T12:20:46.823Z,10.47
2018-01-04T12:21:46.713Z,10.41
2018-01-04T12:22:46.744Z,10.47
2018-01-04T12:23:46.701Z,10.44
2018-01-04T12:24:46.706Z,10.42
2018-01-04T12:25:46.708Z,10.42
2018-01-04T12:26:46.747Z,10.44
2018-01-04T12:27:46.739Z,10.51
2018-01-04T12:28:46.714Z,10.42
2018-01-04T12:29:46.689Z,10.47
2018-01-04T12:30:46.711Z,10.48
2018-01-04T12:31:46.774Z,10.52
2018-01-04T12:32:46.738Z,10.56
2018-01-04T12:33:46.656Z,10.55
2018-01-04T12:34:46.679Z,10.55
2018-01-04T12:35:46.629Z,10.55
2018-01-04T12:36:46.609Z,10.44
2018-01-04T12:37:46.620Z,10.42
2018-01-04T12:38:46.570Z,10.44
2018-01-04T12:39:46.929Z,10.38
2018-01-04T12:40:46.297Z,10.32
2018-01-04T12:41:46.315Z,10.36
2018-01-04T12:42:46.570Z,10.2
2018-01-04T12:43:46.314Z,10.22
2018-01-04T12:44:46.516Z,10.23
2018-01-04T12:45:46.509Z,10.2
2018-01-04T12:46:46.518Z,10.14
2018-01-04T12:47:46.485Z,10.05
2018-01-04T12:48:46.478Z,10.09
2018-01-04T12:49:46.480Z,10.07
2018-01-04T12:50:46.471Z,10.08
2018-01-04T12:51:46.479Z,10.07
2018-01-04T12:52:46.433Z,10.09
2018-01-04T12:53:46.473Z,10.09
2018-01-04T12:54:46.428Z,10.12
2018-01-04T12:55:46.201Z,10.07
2018-01-04T12:56:46.410Z,10.09
2018-01-04T12:57:46.392Z,10.14
2018-01-04T12:58:46.369Z,10.09
2018-01-04T12:59:46.404Z,10.05
2018-01-04T13:00:46.391Z,10.09
2018-01-04T13:01:46.367Z,10.02
2018-01-04T13:02:46.355Z,10.07
2018-01-04T13:03:46.337Z,10.08
2018-01-04T13:04:46.370Z,10.04
2018-01-04T13:05:46.413Z,10.04
2018-01-04T13:06:46.328Z,10.05
2018-01-04T13:07:46.292Z,10.04
2018-01-04T13:08:46.286Z,9.9
2018-01-04T13:09:46.300Z,9.91
2018-01-04T13:10:46.340Z,9.91
2018-01-04T13:11:46.361Z,9.9
2018-01-04T13:12:46.400Z,9.93
2018-01-04T13:13:46.335Z,10.01
2018-01-04T13:14:46.302Z,9.9
2018-01-04T13:15:46.268Z,9.9
2018-01-04T13:16:46.245Z,10.04